sensor_id;sensor_type;location;lat;lon;timestamp;P1;durP1;ratioP1;P2;durP2;ratioP2
10230;SDS011;62604;49.432;8.680;2023-04-07T00:00:28;20.30;;;18.40;;
10230;SDS011;62604;49.432;8.680;2023-04-07T00:02:57;19.93;;;18.07;;
10230;SDS011;62604;49.432;8.680;2023-04-07T00:05:26;20.40;;;18.40;;
10230;SDS011;62604;49.432;8.680;2023-04-07T00:07:53;20.40;;;18.40;;
10230;SDS011;62604;49.432;8.680;2023-04-07T00:10:20;20.00;;;17.80;;
10230;SDS011;62604;49.432;8.680;2023-04-07T00:12:47;20.60;;;18.60;;
10230;SDS011;62604;49.432;8.680;2023-04-07T00:15:14;20.10;;;18.27;;
10230;SDS011;62604;49.432;8.680;2023-04-07T00:17:42;21.13;;;18.80;;
10230;SDS011;62604;49.432;8.680;2023-04-07T00:20:12;21.03;;;18.03;;
10230;SDS011;62604;49.432;8.680;2023-04-07T00:22:40;19.60;;;17.70;;
10230;SDS011;62604;49.432;8.680;2023-04-07T00:25:07;19.63;;;17.83;;
10230;SDS011;62604;49.432;8.680;2023-04-07T00:27:35;19.70;;;17.60;;
10230;SDS011;62604;49.432;8.680;2023-04-07T00:30:02;19.80;;;17.80;;
10230;SDS011;62604;49.432;8.680;2023-04-07T00:32:30;20.20;;;18.30;;
10230;SDS011;62604;49.432;8.680;2023-04-07T00:34:58;19.03;;;17.17;;
10230;SDS011;62604;49.432;8.680;2023-04-07T00:37:27;19.10;;;17.37;;
10230;SDS011;62604;49.432;8.680;2023-04-07T00:39:55;17.73;;;16.00;;
10230;SDS011;62604;49.432;8.680;2023-04-07T00:42:23;18.33;;;16.43;;
10230;SDS011;62604;49.432;8.680;2023-04-07T00:44:50;18.40;;;16.50;;
10230;SDS011;62604;49.432;8.680;2023-04-07T00:47:17;18.00;;;16.20;;
10230;SDS011;62604;49.432;8.680;2023-04-07T00:49:45;17.53;;;15.77;;
10230;SDS011;62604;49.432;8.680;2023-04-07T00:52:13;16.87;;;15.23;;
10230;SDS011;62604;49.432;8.680;2023-04-07T00:54:44;16.87;;;15.33;;
10230;SDS011;62604;49.432;8.680;2023-04-07T00:57:13;18.17;;;16.23;;
10230;SDS011;62604;49.432;8.680;2023-04-07T00:59:40;17.50;;;15.53;;
10230;SDS011;62604;49.432;8.680;2023-04-07T01:02:09;17.47;;;15.67;;
10230;SDS011;62604;49.432;8.680;2023-04-07T01:04:42;18.10;;;15.83;;
10230;SDS011;62604;49.432;8.680;2023-04-07T01:07:14;16.50;;;14.80;;
10230;SDS011;62604;49.432;8.680;2023-04-07T01:09:52;17.23;;;15.53;;
10230;SDS011;62604;49.432;8.680;2023-04-07T01:12:28;16.70;;;15.20;;
10230;SDS011;62604;49.432;8.680;2023-04-07T01:15:08;16.63;;;14.93;;
10230;SDS011;62604;49.432;8.680;2023-04-07T01:17:37;18.87;;;15.73;;
10230;SDS011;62604;49.432;8.680;2023-04-07T10:40:35;15.60;;;14.40;;
10230;SDS011;62604;49.432;8.680;2023-04-07T10:43:06;16.15;;;14.88;;
10230;SDS011;62604;49.432;8.680;2023-04-07T10:45:51;15.55;;;14.15;;
10230;SDS011;62604;49.432;8.680;2023-04-07T10:48:23;14.63;;;13.52;;
10230;SDS011;62604;49.432;8.680;2023-04-07T10:59:41;14.10;;;13.00;;
10230;SDS011;62604;49.432;8.680;2023-04-07T11:02:41;14.07;;;13.07;;
10230;SDS011;62604;49.432;8.680;2023-04-07T11:05:18;13.85;;;12.85;;
10230;SDS011;62604;49.432;8.680;2023-04-07T11:07:48;13.23;;;12.23;;
10230;SDS011;62604;49.432;8.680;2023-04-07T11:10:30;13.48;;;12.48;;
10230;SDS011;62604;49.432;8.680;2023-04-07T11:13:05;13.82;;;12.82;;
10230;SDS011;62604;49.432;8.680;2023-04-07T11:15:33;14.02;;;12.88;;
10230;SDS011;62604;49.432;8.680;2023-04-07T11:18:07;14.23;;;13.13;;
10230;SDS011;62604;49.432;8.680;2023-04-07T11:20:45;13.50;;;12.50;;
10230;SDS011;62604;49.432;8.680;2023-04-07T11:23:20;13.77;;;12.77;;
10230;SDS011;62604;49.432;8.680;2023-04-07T11:25:50;13.48;;;12.48;;
10230;SDS011;62604;49.432;8.680;2023-04-07T11:28:20;14.05;;;12.95;;
10230;SDS011;62604;49.432;8.680;2023-04-07T11:30:48;13.40;;;12.30;;
10230;SDS011;62604;49.432;8.680;2023-04-07T11:33:18;13.75;;;12.75;;
10230;SDS011;62604;49.432;8.680;2023-04-07T11:35:51;14.07;;;12.50;;
10230;SDS011;62604;49.432;8.680;2023-04-07T11:38:22;13.52;;;12.45;;
10230;SDS011;62604;49.432;8.680;2023-04-07T11:40:51;12.80;;;11.90;;
10230;SDS011;62604;49.432;8.680;2023-04-07T11:43:25;13.30;;;12.40;;
10230;SDS011;62604;49.432;8.680;2023-04-07T11:46:07;12.88;;;11.93;;
10230;SDS011;62604;49.432;8.680;2023-04-07T11:48:35;13.40;;;12.40;;
10230;SDS011;62604;49.432;8.680;2023-04-07T11:51:04;13.32;;;12.32;;
10230;SDS011;62604;49.432;8.680;2023-04-07T11:53:37;13.88;;;12.80;;
10230;SDS011;62604;49.432;8.680;2023-04-07T11:56:05;14.20;;;13.00;;
10230;SDS011;62604;49.432;8.680;2023-04-07T11:58:36;13.85;;;12.75;;
10230;SDS011;62604;49.432;8.680;2023-04-07T12:01:04;13.77;;;12.77;;
10230;SDS011;62604;49.432;8.680;2023-04-07T12:03:33;13.68;;;12.57;;
10230;SDS011;62604;49.432;8.680;2023-04-07T12:06:02;13.07;;;12.07;;
10230;SDS011;62604;49.432;8.680;2023-04-07T12:08:39;13.70;;;12.52;;
10230;SDS011;62604;49.432;8.680;2023-04-07T12:11:08;13.80;;;12.60;;
10230;SDS011;62604;49.432;8.680;2023-04-07T12:13:38;13.77;;;12.80;;
10230;SDS011;62604;49.432;8.680;2023-04-07T12:16:06;13.23;;;12.23;;
10230;SDS011;62604;49.432;8.680;2023-04-07T12:18:33;13.20;;;12.30;;
10230;SDS011;62604;49.432;8.680;2023-04-07T12:21:01;13.57;;;12.48;;
10230;SDS011;62604;49.432;8.680;2023-04-07T12:23:29;13.25;;;12.25;;
10230;SDS011;62604;49.432;8.680;2023-04-07T12:25:56;13.25;;;12.27;;
10230;SDS011;62604;49.432;8.680;2023-04-07T12:28:23;14.07;;;13.07;;
10230;SDS011;62604;49.432;8.680;2023-04-07T12:30:52;13.57;;;12.57;;
10230;SDS011;62604;49.432;8.680;2023-04-07T12:33:19;12.35;;;11.45;;
10230;SDS011;62604;49.432;8.680;2023-04-07T12:35:46;13.65;;;12.55;;
10230;SDS011;62604;49.432;8.680;2023-04-07T12:38:15;13.27;;;12.25;;
10230;SDS011;62604;49.432;8.680;2023-04-07T12:40:43;13.15;;;12.25;;
10230;SDS011;62604;49.432;8.680;2023-04-07T12:43:10;12.63;;;11.73;;
10230;SDS011;62604;49.432;8.680;2023-04-07T12:45:37;13.65;;;12.55;;
10230;SDS011;62604;49.432;8.680;2023-04-07T12:48:06;13.23;;;12.23;;
10230;SDS011;62604;49.432;8.680;2023-04-07T12:50:33;12.48;;;11.60;;
10230;SDS011;62604;49.432;8.680;2023-04-07T12:53:01;12.55;;;11.65;;
10230;SDS011;62604;49.432;8.680;2023-04-07T12:55:29;12.80;;;11.90;;
10230;SDS011;62604;49.432;8.680;2023-04-07T12:57:57;12.27;;;11.38;;
10230;SDS011;62604;49.432;8.680;2023-04-07T13:00:28;12.18;;;11.38;;
10230;SDS011;62604;49.432;8.680;2023-04-07T13:02:56;12.90;;;11.95;;
10230;SDS011;62604;49.432;8.680;2023-04-07T13:05:25;12.18;;;11.38;;
10230;SDS011;62604;49.432;8.680;2023-04-07T13:07:53;11.75;;;10.98;;
10230;SDS011;62604;49.432;8.680;2023-04-07T13:10:20;12.35;;;11.35;;
10230;SDS011;62604;49.432;8.680;2023-04-07T13:12:47;12.23;;;11.35;;
10230;SDS011;62604;49.432;8.680;2023-04-07T13:15:14;11.60;;;10.90;;
10230;SDS011;62604;49.432;8.680;2023-04-07T13:17:41;12.10;;;11.30;;
10230;SDS011;62604;49.432;8.680;2023-04-07T13:20:08;12.38;;;11.57;;
10230;SDS011;62604;49.432;8.680;2023-04-07T13:22:36;11.98;;;11.18;;
10230;SDS011;62604;49.432;8.680;2023-04-07T13:25:04;12.80;;;11.80;;
10230;SDS011;62604;49.432;8.680;2023-04-07T13:27:31;12.10;;;11.30;;
10230;SDS011;62604;49.432;8.680;2023-04-07T13:29:59;12.10;;;11.30;;
10230;SDS011;62604;49.432;8.680;2023-04-07T13:32:26;12.30;;;11.50;;
10230;SDS011;62604;49.432;8.680;2023-04-07T13:34:53;12.52;;;11.63;;
10230;SDS011;62604;49.432;8.680;2023-04-07T13:37:20;12.77;;;11.77;;
10230;SDS011;62604;49.432;8.680;2023-04-07T13:39:49;12.25;;;11.45;;
10230;SDS011;62604;49.432;8.680;2023-04-07T13:42:18;12.13;;;11.32;;
10230;SDS011;62604;49.432;8.680;2023-04-07T13:44:45;12.57;;;11.68;;
10230;SDS011;62604;49.432;8.680;2023-04-07T13:47:14;11.77;;;10.98;;
10230;SDS011;62604;49.432;8.680;2023-04-07T13:49:44;12.05;;;11.25;;
10230;SDS011;62604;49.432;8.680;2023-04-07T13:52:13;12.18;;;11.38;;
10230;SDS011;62604;49.432;8.680;2023-04-07T13:54:42;12.00;;;11.20;;
10230;SDS011;62604;49.432;8.680;2023-04-07T13:57:11;12.00;;;11.10;;
10230;SDS011;62604;49.432;8.680;2023-04-07T13:59:44;11.68;;;10.93;;
10230;SDS011;62604;49.432;8.680;2023-04-07T14:02:12;11.88;;;11.07;;
10230;SDS011;62604;49.432;8.680;2023-04-07T14:04:39;11.90;;;11.10;;
10230;SDS011;62604;49.432;8.680;2023-04-07T14:07:06;11.70;;;10.90;;
10230;SDS011;62604;49.432;8.680;2023-04-07T14:09:33;11.80;;;10.95;;
10230;SDS011;62604;49.432;8.680;2023-04-07T14:12:00;11.35;;;10.65;;
10230;SDS011;62604;49.432;8.680;2023-04-07T14:14:29;11.65;;;10.90;;
10230;SDS011;62604;49.432;8.680;2023-04-07T14:16:56;11.75;;;10.85;;
10230;SDS011;62604;49.432;8.680;2023-04-07T14:19:24;11.43;;;10.73;;
10230;SDS011;62604;49.432;8.680;2023-04-07T14:21:51;11.10;;;10.40;;
10230;SDS011;62604;49.432;8.680;2023-04-07T14:24:18;11.55;;;10.75;;
10230;SDS011;62604;49.432;8.680;2023-04-07T14:26:46;11.57;;;10.77;;
10230;SDS011;62604;49.432;8.680;2023-04-07T14:29:18;11.50;;;10.70;;
10230;SDS011;62604;49.432;8.680;2023-04-07T14:31:48;11.52;;;10.77;;
10230;SDS011;62604;49.432;8.680;2023-04-07T14:34:15;12.02;;;11.15;;
10230;SDS011;62604;49.432;8.680;2023-04-07T14:36:51;11.60;;;10.80;;
10230;SDS011;62604;49.432;8.680;2023-04-07T14:39:20;11.60;;;10.80;;
10230;SDS011;62604;49.432;8.680;2023-04-07T14:41:49;11.90;;;11.10;;
10230;SDS011;62604;49.432;8.680;2023-04-07T14:44:18;11.82;;;11.02;;
10230;SDS011;62604;49.432;8.680;2023-04-07T14:46:45;11.30;;;10.60;;
10230;SDS011;62604;49.432;8.680;2023-04-07T14:49:14;11.53;;;10.73;;
10230;SDS011;62604;49.432;8.680;2023-04-07T14:51:41;11.40;;;10.60;;
10230;SDS011;62604;49.432;8.680;2023-04-07T14:54:09;11.70;;;10.90;;
10230;SDS011;62604;49.432;8.680;2023-04-07T14:56:36;11.30;;;10.60;;
10230;SDS011;62604;49.432;8.680;2023-04-07T14:59:03;11.27;;;10.53;;
10230;SDS011;62604;49.432;8.680;2023-04-07T15:01:30;11.53;;;10.73;;
10230;SDS011;62604;49.432;8.680;2023-04-07T15:03:58;11.60;;;10.80;;
10230;SDS011;62604;49.432;8.680;2023-04-07T15:06:27;11.43;;;10.73;;
10230;SDS011;62604;49.432;8.680;2023-04-07T15:08:54;11.43;;;10.73;;
10230;SDS011;62604;49.432;8.680;2023-04-07T15:11:21;10.97;;;10.23;;
10230;SDS011;62604;49.432;8.680;2023-04-07T15:13:48;11.90;;;11.10;;
10230;SDS011;62604;49.432;8.680;2023-04-07T15:16:15;11.30;;;10.60;;
10230;SDS011;62604;49.432;8.680;2023-04-07T15:18:43;11.30;;;10.60;;
10230;SDS011;62604;49.432;8.680;2023-04-07T15:21:11;11.25;;;10.50;;
10230;SDS011;62604;49.432;8.680;2023-04-07T15:23:43;11.55;;;10.75;;
10230;SDS011;62604;49.432;8.680;2023-04-07T15:26:11;11.30;;;10.60;;
10230;SDS011;62604;49.432;8.680;2023-04-07T15:28:38;11.27;;;10.50;;
10230;SDS011;62604;49.432;8.680;2023-04-07T15:31:05;11.05;;;10.35;;
10230;SDS011;62604;49.432;8.680;2023-04-07T15:33:34;11.02;;;10.32;;
10230;SDS011;62604;49.432;8.680;2023-04-07T15:36:02;10.80;;;10.10;;
10230;SDS011;62604;49.432;8.680;2023-04-07T15:38:29;11.20;;;10.50;;
10230;SDS011;62604;49.432;8.680;2023-04-07T15:40:58;10.90;;;10.20;;
10230;SDS011;62604;49.432;8.680;2023-04-07T15:43:25;11.30;;;10.50;;
10230;SDS011;62604;49.432;8.680;2023-04-07T15:45:53;11.10;;;10.40;;
10230;SDS011;62604;49.432;8.680;2023-04-07T15:48:21;11.68;;;10.88;;
10230;SDS011;62604;49.432;8.680;2023-04-07T15:50:48;11.40;;;10.50;;
10230;SDS011;62604;49.432;8.680;2023-04-07T15:53:16;11.55;;;10.80;;
10230;SDS011;62604;49.432;8.680;2023-04-07T15:55:43;11.33;;;10.63;;
10230;SDS011;62604;49.432;8.680;2023-04-07T15:58:12;11.40;;;10.57;;
10230;SDS011;62604;49.432;8.680;2023-04-07T16:00:39;11.33;;;10.63;;
10230;SDS011;62604;49.432;8.680;2023-04-07T16:03:06;11.70;;;10.90;;
10230;SDS011;62604;49.432;8.680;2023-04-07T16:05:33;11.60;;;10.80;;
10230;SDS011;62604;49.432;8.680;2023-04-07T16:08:02;11.10;;;10.40;;
10230;SDS011;62604;49.432;8.680;2023-04-07T16:10:30;11.50;;;10.70;;
10230;SDS011;62604;49.432;8.680;2023-04-07T16:12:58;11.50;;;10.70;;
10230;SDS011;62604;49.432;8.680;2023-04-07T16:15:27;11.60;;;10.80;;
10230;SDS011;62604;49.432;8.680;2023-04-07T16:17:54;11.50;;;10.63;;
10230;SDS011;62604;49.432;8.680;2023-04-07T16:20:21;11.63;;;10.83;;
10230;SDS011;62604;49.432;8.680;2023-04-07T16:22:48;11.30;;;10.53;;
10230;SDS011;62604;49.432;8.680;2023-04-07T16:25:16;11.90;;;11.10;;
10230;SDS011;62604;49.432;8.680;2023-04-07T16:27:43;12.00;;;10.97;;
10230;SDS011;62604;49.432;8.680;2023-04-07T16:30:11;12.20;;;11.20;;
10230;SDS011;62604;49.432;8.680;2023-04-07T16:32:41;11.80;;;11.00;;
10230;SDS011;62604;49.432;8.680;2023-04-07T16:35:10;11.70;;;10.80;;
10230;SDS011;62604;49.432;8.680;2023-04-07T16:37:38;11.53;;;10.77;;
10230;SDS011;62604;49.432;8.680;2023-04-07T16:40:06;11.60;;;10.80;;
10230;SDS011;62604;49.432;8.680;2023-04-07T16:42:35;11.60;;;10.80;;
10230;SDS011;62604;49.432;8.680;2023-04-07T16:45:02;11.40;;;10.60;;
10230;SDS011;62604;49.432;8.680;2023-04-07T16:47:30;11.20;;;10.40;;
10230;SDS011;62604;49.432;8.680;2023-04-07T16:49:59;11.37;;;10.57;;
10230;SDS011;62604;49.432;8.680;2023-04-07T16:52:29;11.40;;;10.60;;
10230;SDS011;62604;49.432;8.680;2023-04-07T16:54:56;11.63;;;10.83;;
10230;SDS011;62604;49.432;8.680;2023-04-07T16:57:24;10.93;;;10.23;;
10230;SDS011;62604;49.432;8.680;2023-04-07T16:59:51;11.13;;;10.30;;
10230;SDS011;62604;49.432;8.680;2023-04-07T17:02:18;11.30;;;10.50;;
10230;SDS011;62604;49.432;8.680;2023-04-07T17:04:45;11.00;;;10.30;;
10230;SDS011;62604;49.432;8.680;2023-04-07T17:07:14;10.80;;;10.10;;
10230;SDS011;62604;49.432;8.680;2023-04-07T17:09:42;11.37;;;10.57;;
10230;SDS011;62604;49.432;8.680;2023-04-07T17:12:09;11.17;;;10.47;;
10230;SDS011;62604;49.432;8.680;2023-04-07T17:14:37;11.27;;;10.50;;
10230;SDS011;62604;49.432;8.680;2023-04-07T17:17:04;10.97;;;10.27;;
10230;SDS011;62604;49.432;8.680;2023-04-07T17:19:31;11.27;;;10.47;;
10230;SDS011;62604;49.432;8.680;2023-04-07T17:21:59;11.10;;;10.40;;
10230;SDS011;62604;49.432;8.680;2023-04-07T17:24:29;10.90;;;10.20;;
10230;SDS011;62604;49.432;8.680;2023-04-07T17:26:56;11.33;;;10.53;;
10230;SDS011;62604;49.432;8.680;2023-04-07T17:29:24;11.17;;;10.47;;
10230;SDS011;62604;49.432;8.680;2023-04-07T17:31:56;11.53;;;10.73;;
10230;SDS011;62604;49.432;8.680;2023-04-07T17:34:24;11.17;;;10.37;;
10230;SDS011;62604;49.432;8.680;2023-04-07T17:36:51;12.00;;;11.10;;
10230;SDS011;62604;49.432;8.680;2023-04-07T17:39:18;12.30;;;11.30;;
10230;SDS011;62604;49.432;8.680;2023-04-07T17:41:47;12.10;;;11.20;;
10230;SDS011;62604;49.432;8.680;2023-04-07T17:44:14;12.00;;;11.17;;
10230;SDS011;62604;49.432;8.680;2023-04-07T17:46:41;11.90;;;11.10;;
10230;SDS011;62604;49.432;8.680;2023-04-07T17:49:08;11.77;;;10.83;;
10230;SDS011;62604;49.432;8.680;2023-04-07T17:51:35;11.63;;;10.83;;
10230;SDS011;62604;49.432;8.680;2023-04-07T17:54:03;11.57;;;10.77;;
10230;SDS011;62604;49.432;8.680;2023-04-07T17:56:30;11.80;;;10.90;;
10230;SDS011;62604;49.432;8.680;2023-04-07T17:58:59;12.00;;;11.00;;
10230;SDS011;62604;49.432;8.680;2023-04-07T18:01:26;11.60;;;10.70;;
10230;SDS011;62604;49.432;8.680;2023-04-07T18:03:53;11.93;;;11.03;;
10230;SDS011;62604;49.432;8.680;2023-04-07T18:06:21;11.50;;;10.67;;
10230;SDS011;62604;49.432;8.680;2023-04-07T18:08:48;11.70;;;10.80;;
10230;SDS011;62604;49.432;8.680;2023-04-07T18:11:15;11.97;;;11.07;;
10230;SDS011;62604;49.432;8.680;2023-04-07T18:13:42;12.87;;;11.77;;
10230;SDS011;62604;49.432;8.680;2023-04-07T18:16:11;12.20;;;11.40;;
10230;SDS011;62604;49.432;8.680;2023-04-07T18:18:41;11.80;;;10.97;;
10230;SDS011;62604;49.432;8.680;2023-04-07T18:21:08;11.80;;;11.00;;
10230;SDS011;62604;49.432;8.680;2023-04-07T18:23:35;11.80;;;10.87;;
10230;SDS011;62604;49.432;8.680;2023-04-07T18:26:02;12.50;;;11.60;;
10230;SDS011;62604;49.432;8.680;2023-04-07T18:28:30;12.00;;;10.80;;
10230;SDS011;62604;49.432;8.680;2023-04-07T18:31:02;11.80;;;10.87;;
10230;SDS011;62604;49.432;8.680;2023-04-07T18:33:32;11.80;;;10.90;;
10230;SDS011;62604;49.432;8.680;2023-04-07T18:36:01;12.60;;;11.60;;
10230;SDS011;62604;49.432;8.680;2023-04-07T18:38:30;11.60;;;10.80;;
10230;SDS011;62604;49.432;8.680;2023-04-07T18:40:57;12.57;;;11.67;;
10230;SDS011;62604;49.432;8.680;2023-04-07T18:43:24;12.80;;;11.80;;
10230;SDS011;62604;49.432;8.680;2023-04-07T18:45:52;12.70;;;11.70;;
10230;SDS011;62604;49.432;8.680;2023-04-07T18:48:19;12.23;;;11.33;;
10230;SDS011;62604;49.432;8.680;2023-04-07T18:50:53;12.40;;;11.40;;
10230;SDS011;62604;49.432;8.680;2023-04-07T18:53:20;11.67;;;10.87;;
10230;SDS011;62604;49.432;8.680;2023-04-07T18:55:58;11.57;;;10.77;;
10230;SDS011;62604;49.432;8.680;2023-04-07T18:58:39;12.10;;;11.20;;
10230;SDS011;62604;49.432;8.680;2023-04-07T19:01:10;12.43;;;11.43;;
10230;SDS011;62604;49.432;8.680;2023-04-07T19:03:41;11.40;;;10.60;;
10230;SDS011;62604;49.432;8.680;2023-04-07T19:06:18;11.60;;;10.80;;
10230;SDS011;62604;49.432;8.680;2023-04-07T19:08:45;11.63;;;10.83;;
10230;SDS011;62604;49.432;8.680;2023-04-07T19:11:13;12.00;;;11.10;;
10230;SDS011;62604;49.432;8.680;2023-04-07T19:13:40;12.57;;;11.60;;
10230;SDS011;62604;49.432;8.680;2023-04-07T19:16:07;12.70;;;11.70;;
10230;SDS011;62604;49.432;8.680;2023-04-07T19:18:35;12.50;;;11.50;;
10230;SDS011;62604;49.432;8.680;2023-04-07T19:21:02;13.03;;;11.93;;
10230;SDS011;62604;49.432;8.680;2023-04-07T19:23:32;12.70;;;11.70;;
10230;SDS011;62604;49.432;8.680;2023-04-07T19:26:00;17.23;;;11.70;;
10230;SDS011;62604;49.432;8.680;2023-04-07T19:28:27;13.60;;;12.30;;
10230;SDS011;62604;49.432;8.680;2023-04-07T19:30:54;13.47;;;12.37;;
10230;SDS011;62604;49.432;8.680;2023-04-07T19:33:21;13.20;;;12.10;;
10230;SDS011;62604;49.432;8.680;2023-04-07T19:35:50;13.67;;;12.53;;
10230;SDS011;62604;49.432;8.680;2023-04-07T19:38:18;13.63;;;12.47;;
10230;SDS011;62604;49.432;8.680;2023-04-07T19:40:46;13.70;;;12.57;;
10230;SDS011;62604;49.432;8.680;2023-04-07T19:43:13;14.17;;;12.90;;
10230;SDS011;62604;49.432;8.680;2023-04-07T19:45:41;13.27;;;12.17;;
10230;SDS011;62604;49.432;8.680;2023-04-07T19:48:09;12.90;;;11.90;;
10230;SDS011;62604;49.432;8.680;2023-04-07T19:50:36;13.40;;;12.30;;
10230;SDS011;62604;49.432;8.680;2023-04-07T19:53:07;13.90;;;12.73;;
10230;SDS011;62604;49.432;8.680;2023-04-07T19:55:40;13.07;;;11.97;;
10230;SDS011;62604;49.432;8.680;2023-04-07T19:58:09;13.67;;;12.57;;
10230;SDS011;62604;49.432;8.680;2023-04-07T20:00:36;15.27;;;13.13;;
